createdAt,value
2017-02-14T00:00:12.286Z,51.10
2017-02-14T00:01:12.929Z,51.10
2017-02-14T00:02:13.051Z,51.10
2017-02-14T00:03:12.872Z,51.10
2017-02-14T00:04:12.272Z,51.00
2017-02-14T00:05:12.113Z,51.00
2017-02-14T00:06:12.105Z,51.00
2017-02-14T00:07:12.096Z,51.00
2017-02-14T00:08:12.270Z,51.00
2017-02-14T00:09:13.105Z,51.10
2017-02-14T00:10:12.298Z,51.00
2017-02-14T00:11:13.389Z,51.00
2017-02-14T00:12:16.307Z,51.00
2017-02-14T00:13:12.373Z,50.90
2017-02-14T00:14:12.396Z,51.10
2017-02-14T00:15:12.096Z,50.90
2017-02-14T00:16:10.879Z,is
2017-02-14T00:17:12.433Z,51.00
2017-02-14T00:18:17.525Z,51.00
2017-02-14T00:19:11.590Z,51.10
2017-02-14T00:20:12.222Z,51.00
2017-02-14T00:21:12.394Z,50.90
2017-02-14T00:22:11.650Z,50.90
2017-02-14T00:23:11.820Z,50.90
2017-02-14T00:24:12.015Z,50.90
2017-02-14T00:25:12.785Z,51.10
2017-02-14T00:26:11.799Z,50.80
2017-02-14T00:27:12.366Z,50.80
2017-02-14T00:28:13.009Z,50.90
2017-02-14T00:29:12.689Z,51.00
2017-02-14T00:30:11.767Z,50.90
2017-02-14T00:31:12.309Z,50.80
2017-02-14T00:32:14.000Z,50.90
2017-02-14T00:33:12.565Z,51.00
2017-02-14T00:34:11.674Z,50.90
2017-02-14T00:35:11.725Z,51.50
2017-02-14T00:36:11.733Z,50.80
2017-02-14T00:37:11.783Z,50.80
2017-02-14T00:38:12.304Z,50.90
2017-02-14T00:39:12.106Z,50.80
2017-02-14T00:40:12.285Z,50.90
2017-02-14T00:41:14.767Z,51.00
2017-02-14T00:42:14.320Z,50.90
2017-02-14T00:43:14.649Z,50.80
2017-02-14T00:44:13.415Z,50.80
2017-02-14T00:45:12.156Z,50.80
2017-02-14T00:46:11.651Z,50.80
2017-02-14T00:47:12.622Z,50.90
2017-02-14T00:48:12.532Z,50.90
2017-02-14T00:49:08.908Z,is
2017-02-14T00:50:14.658Z,50.80
2017-02-14T00:51:11.927Z,50.70
2017-02-14T00:52:12.889Z,50.00
2017-02-14T00:53:13.107Z,50.80
2017-02-14T00:54:12.823Z,50.80
2017-02-14T00:55:11.798Z,50.70
2017-02-14T00:56:10.395Z,is
2017-02-14T00:57:13.467Z,50.90
2017-02-14T00:58:11.558Z,50.70
2017-02-14T00:59:11.603Z,50.70
2017-02-14T01:00:12.232Z,50.80
2017-02-14T01:01:12.753Z,50.10
2017-02-14T01:02:12.330Z,is
2017-02-14T01:03:15.647Z,50.80
2017-02-14T01:04:14.096Z,50.70
2017-02-14T01:05:12.273Z,50.70
2017-02-14T01:06:13.615Z,50.70
2017-02-14T01:07:13.608Z,50.70
2017-02-14T01:08:14.585Z,50.80
2017-02-14T01:09:12.958Z,50.70
2017-02-14T01:10:12.803Z,is
2017-02-14T01:11:14.077Z,50.70
2017-02-14T01:12:13.772Z,50.70
2017-02-14T01:13:11.953Z,50.80
2017-02-14T01:14:12.893Z,50.70
2017-02-14T01:15:14.215Z,50.70
2017-02-14T01:16:14.295Z,50.80
2017-02-14T01:17:14.166Z,50.70
2017-02-14T01:18:17.729Z,50.70
2017-02-14T01:19:13.560Z,50.80
2017-02-14T01:20:10.294Z,is
2017-02-14T01:21:14.911Z,50.70
2017-02-14T01:22:12.884Z,50.70
2017-02-14T01:23:13.486Z,50.70
2017-02-14T01:24:14.833Z,50.70
2017-02-14T01:25:13.586Z,50.70
2017-02-14T01:26:14.577Z,50.70
2017-02-14T01:27:11.755Z,50.70
2017-02-14T01:28:13.686Z,50.70
2017-02-14T01:29:11.640Z,50.70
2017-02-14T01:30:12.369Z,50.70
2017-02-14T01:31:12.551Z,50.70
2017-02-14T01:32:11.525Z,50.70
2017-02-14T01:33:14.385Z,50.70
2017-02-14T01:34:12.974Z,50.70
2017-02-14T01:35:09.317Z,is
2017-02-14T01:36:13.838Z,50.70
2017-02-14T01:37:12.049Z,50.70
2017-02-14T01:38:12.763Z,50.70
2017-02-14T01:39:10.224Z,is
2017-02-14T01:40:11.693Z,50.60
2017-02-14T01:41:11.691Z,50.70
2017-02-14T01:42:12.768Z,50.70
2017-02-14T01:43:13.079Z,50.70
2017-02-14T01:44:14.125Z,50.60
2017-02-14T01:45:13.848Z,50.60
2017-02-14T01:46:12.827Z,50.70
2017-02-14T01:47:13.013Z,50.70
2017-02-14T01:48:10.417Z,is
2017-02-14T01:49:12.527Z,50.70
2017-02-14T01:50:10.267Z,is
2017-02-14T01:51:14.173Z,50.70
2017-02-14T01:52:12.184Z,50.60
2017-02-14T01:53:14.366Z,50.70
2017-02-14T01:54:12.831Z,50.70
2017-02-14T01:55:13.535Z,50.70
2017-02-14T01:56:09.124Z,is
2017-02-14T01:57:10.276Z,is
2017-02-14T01:58:11.866Z,50.70
2017-02-14T01:59:15.096Z,50.70
2017-02-14T02:00:12.721Z,50.60
2017-02-14T02:01:12.932Z,50.70
2017-02-14T02:02:12.411Z,50.60
2017-02-14T02:03:12.098Z,50.70
2017-02-14T02:04:12.960Z,50.60
2017-02-14T02:05:12.449Z,49.80
2017-02-14T02:06:13.375Z,50.70
2017-02-14T02:07:13.033Z,50.10
2017-02-14T02:08:12.604Z,50.70
2017-02-14T02:09:11.679Z,50.60
2017-02-14T02:10:12.907Z,50.70
2017-02-14T02:11:13.385Z,50.60
2017-02-14T02:12:14.005Z,50.70
2017-02-14T02:13:12.496Z,50.60
2017-02-14T02:14:12.290Z,50.70
2017-02-14T02:15:12.262Z,50.70
2017-02-14T02:16:12.495Z,50.60
2017-02-14T02:17:11.854Z,50.60
2017-02-14T02:18:10.493Z,is
2017-02-14T02:19:13.486Z,50.70
2017-02-14T02:20:12.316Z,50.60
2017-02-14T02:21:13.983Z,50.70
2017-02-14T02:22:12.977Z,50.70
2017-02-14T02:23:14.598Z,50.60
2017-02-14T02:24:11.778Z,50.60
2017-02-14T02:25:11.919Z,50.60
2017-02-14T02:26:10.398Z,is
2017-02-14T02:27:14.164Z,50.60
2017-02-14T02:28:12.486Z,50.60
2017-02-14T02:29:12.293Z,50.70
2017-02-14T02:30:13.093Z,50.60
2017-02-14T02:31:12.275Z,50.60
2017-02-14T02:32:10.944Z,is
2017-02-14T02:33:12.985Z,50.60
2017-02-14T02:34:12.331Z,50.60
2017-02-14T02:35:12.369Z,50.60
2017-02-14T02:36:12.887Z,50.70
2017-02-14T02:37:12.265Z,50.60
2017-02-14T02:38:12.706Z,50.60
2017-02-14T02:39:12.467Z,50.70
2017-02-14T02:40:12.279Z,50.70
2017-02-14T02:41:13.950Z,50.70
2017-02-14T02:42:13.996Z,50.70
2017-02-14T02:43:10.202Z,is
2017-02-14T02:44:13.411Z,50.70
2017-02-14T02:45:12.254Z,50.70
2017-02-14T02:46:12.874Z,50.70
2017-02-14T02:47:12.866Z,50.60
2017-02-14T02:48:12.717Z,50.60
2017-02-14T02:49:11.332Z,is
2017-02-14T02:50:13.147Z,50.70
2017-02-14T02:51:12.925Z,50.70
2017-02-14T02:52:12.437Z,50.70
2017-02-14T02:53:12.265Z,50.70
2017-02-14T02:54:12.538Z,50.60
2017-02-14T02:55:12.528Z,50.60
2017-02-14T02:56:12.582Z,50.60
2017-02-14T02:57:12.768Z,50.60
2017-02-14T02:58:12.732Z,51.00
2017-02-14T02:59:13.205Z,50.70
2017-02-14T03:00:13.943Z,50.70
2017-02-14T03:01:12.835Z,50.60
2017-02-14T03:02:14.246Z,50.70
2017-02-14T03:03:14.170Z,50.70
2017-02-14T03:04:13.019Z,50.70
2017-02-14T03:05:10.490Z,is
2017-02-14T03:06:11.775Z,50.60
2017-02-14T03:07:11.959Z,50.60
2017-02-14T03:08:12.079Z,50.60
2017-02-14T03:09:12.519Z,50.70
2017-02-14T03:10:13.269Z,50.70
2017-02-14T03:11:15.809Z,50.70
2017-02-14T03:12:14.143Z,50.70
2017-02-14T03:13:12.401Z,50.60
2017-02-14T03:14:12.270Z,50.70
2017-02-14T03:15:09.482Z,is
2017-02-14T03:16:12.603Z,50.60
2017-02-14T03:17:10.314Z,is
2017-02-14T03:18:12.150Z,50.60
2017-02-14T03:19:13.001Z,50.70
2017-02-14T03:20:09.190Z,is
2017-02-14T03:21:12.823Z,50.60
2017-02-14T03:22:14.565Z,50.60
2017-02-14T03:23:12.326Z,50.70
2017-02-14T03:24:12.269Z,50.70
2017-02-14T03:25:13.379Z,51.00
2017-02-14T03:26:14.116Z,50.90
2017-02-14T03:27:10.644Z,is
2017-02-14T03:28:13.138Z,50.70
2017-02-14T03:29:11.458Z,50.60
2017-02-14T03:30:12.816Z,50.60
2017-02-14T03:31:10.675Z,is
2017-02-14T03:32:12.739Z,50.60
2017-02-14T03:33:11.753Z,50.70
2017-02-14T03:34:12.752Z,50.70
2017-02-14T03:35:12.195Z,50.60
2017-02-14T03:36:13.241Z,50.70
2017-02-14T03:37:13.184Z,50.70
2017-02-14T03:38:12.244Z,50.70
2017-02-14T03:39:12.453Z,50.70
2017-02-14T03:40:11.421Z,50.70
2017-02-14T03:41:11.568Z,50.70
2017-02-14T03:42:10.680Z,is
2017-02-14T03:43:12.864Z,50.60
2017-02-14T03:44:13.495Z,50.80
2017-02-14T03:45:11.525Z,50.60
2017-02-14T03:46:12.642Z,50.70
2017-02-14T03:47:11.760Z,50.60
2017-02-14T03:48:12.501Z,50.60
2017-02-14T03:49:12.362Z,50.70
2017-02-14T03:50:13.077Z,50.70
2017-02-14T03:51:12.085Z,50.60
2017-02-14T03:52:13.734Z,50.70
2017-02-14T03:53:11.864Z,50.60
2017-02-14T03:54:13.242Z,50.70
2017-02-14T03:55:13.796Z,50.60
2017-02-14T03:56:11.833Z,50.60
2017-02-14T03:57:12.503Z,50.60
2017-02-14T03:58:11.845Z,50.60
2017-02-14T03:59:11.841Z,50.60
2017-02-14T04:00:12.490Z,50.60
2017-02-14T04:01:11.982Z,50.60
2017-02-14T04:02:12.488Z,50.60
2017-02-14T04:03:09.764Z,is
2017-02-14T04:04:12.635Z,50.60
2017-02-14T04:05:12.998Z,50.60
2017-02-14T04:06:13.226Z,50.60
2017-02-14T04:07:13.129Z,50.60
2017-02-14T04:08:13.169Z,50.60
2017-02-14T04:09:12.510Z,50.60
2017-02-14T04:10:09.778Z,is
2017-02-14T04:11:12.492Z,50.60
2017-02-14T04:12:11.862Z,50.60
2017-02-14T04:13:09.043Z,is
2017-02-14T04:14:12.237Z,50.70
2017-02-14T04:15:12.898Z,50.60
2017-02-14T04:16:11.948Z,50.70
2017-02-14T04:17:14.793Z,50.70
2017-02-14T04:18:12.503Z,50.70
2017-02-14T04:19:13.305Z,50.70
2017-02-14T04:20:13.484Z,50.70
2017-02-14T04:21:11.855Z,50.60
2017-02-14T04:22:11.882Z,50.60
2017-02-14T04:23:11.862Z,50.60
2017-02-14T04:24:13.570Z,50.70
2017-02-14T04:25:11.783Z,50.70
2017-02-14T04:26:13.257Z,50.70
2017-02-14T04:27:10.416Z,is
2017-02-14T04:28:12.913Z,50.70
2017-02-14T04:29:12.844Z,50.60
2017-02-14T04:30:12.166Z,50.60
2017-02-14T04:31:11.402Z,50.60
2017-02-14T04:32:11.380Z,50.60
2017-02-14T04:33:12.164Z,50.70
2017-02-14T04:34:12.284Z,50.60
2017-02-14T04:35:12.295Z,50.60
2017-02-14T04:36:12.446Z,50.60
2017-02-14T04:37:13.134Z,50.70
2017-02-14T04:38:12.784Z,50.70
2017-02-14T04:39:11.792Z,50.60
2017-02-14T04:40:18.044Z,50.60
2017-02-14T04:41:12.105Z,50.60
2017-02-14T04:42:13.060Z,50.60
2017-02-14T04:43:12.495Z,50.60
2017-02-14T04:44:12.317Z,50.70
2017-02-14T04:45:12.915Z,50.60
2017-02-14T04:46:12.914Z,50.60
2017-02-14T04:47:12.825Z,50.70
2017-02-14T04:48:11.872Z,50.60
2017-02-14T04:49:12.486Z,50.60
2017-02-14T04:50:13.105Z,50.70
2017-02-14T04:51:10.707Z,is
2017-02-14T04:52:12.383Z,50.60
2017-02-14T04:53:11.381Z,50.60
2017-02-14T04:54:12.313Z,50.60
2017-02-14T04:55:12.285Z,50.60
2017-02-14T04:56:12.267Z,50.60
2017-02-14T04:57:14.052Z,50.20
2017-02-14T04:58:12.694Z,50.60
2017-02-14T04:59:10.520Z,is
2017-02-14T05:00:12.815Z,50.60
2017-02-14T05:01:12.452Z,50.70
2017-02-14T05:02:13.177Z,50.70
2017-02-14T05:03:12.427Z,50.60
2017-02-14T05:04:10.265Z,is
2017-02-14T05:05:12.153Z,50.60
2017-02-14T05:06:12.633Z,50.60
2017-02-14T05:07:12.267Z,50.70
2017-02-14T05:08:12.772Z,50.60
2017-02-14T05:09:12.784Z,50.70
2017-02-14T05:10:10.373Z,is
2017-02-14T05:11:15.346Z,50.70
2017-02-14T05:12:13.602Z,50.70
2017-02-14T05:13:12.477Z,50.70
2017-02-14T05:14:08.723Z,is
2017-02-14T05:15:13.307Z,50.60
2017-02-14T05:16:12.013Z,50.60
2017-02-14T05:17:13.831Z,50.70
2017-02-14T05:18:13.618Z,50.70
2017-02-14T05:19:12.223Z,50.60
2017-02-14T05:20:12.313Z,50.60
2017-02-14T05:21:09.729Z,is
2017-02-14T05:22:12.855Z,50.70
2017-02-14T05:23:12.482Z,50.70
2017-02-14T05:24:10.205Z,is
2017-02-14T05:25:16.922Z,50.70
2017-02-14T05:26:16.840Z,50.70
2017-02-14T05:27:13.246Z,is
2017-02-14T05:28:13.759Z,50.70
2017-02-14T05:29:13.421Z,50.70
2017-02-14T05:30:11.411Z,50.60
2017-02-14T05:31:11.596Z,50.60
2017-02-14T05:32:12.245Z,50.70
2017-02-14T05:33:13.760Z,50.70
2017-02-14T05:34:12.355Z,50.60
2017-02-14T05:35:11.469Z,50.60
2017-02-14T05:36:12.599Z,50.60
2017-02-14T05:37:12.557Z,50.70
2017-02-14T05:38:13.457Z,50.70
2017-02-14T05:39:11.674Z,50.60
2017-02-14T05:40:12.727Z,50.70
2017-02-14T05:41:11.664Z,50.70
2017-02-14T05:42:13.348Z,50.60
2017-02-14T05:43:12.925Z,50.70
2017-02-14T05:44:11.960Z,50.70
2017-02-14T05:45:12.677Z,50.70
2017-02-14T05:46:12.351Z,50.70
2017-02-14T05:47:13.500Z,50.70
2017-02-14T05:48:11.778Z,50.60
2017-02-14T05:49:11.945Z,50.60
2017-02-14T05:50:12.956Z,50.70
2017-02-14T05:51:12.588Z,50.60
2017-02-14T05:52:12.305Z,50.70
2017-02-14T05:53:12.210Z,is
2017-02-14T05:54:13.130Z,50.70
2017-02-14T05:55:13.786Z,50.70
2017-02-14T05:56:11.725Z,50.60
2017-02-14T05:57:12.474Z,50.70
2017-02-14T05:58:11.596Z,50.60
2017-02-14T05:59:12.604Z,50.70
2017-02-14T06:00:13.045Z,50.60
2017-02-14T06:01:12.756Z,51.00
2017-02-14T06:02:11.965Z,51.20
2017-02-14T06:03:12.146Z,51.40
2017-02-14T06:04:12.906Z,51.60
2017-02-14T06:05:13.361Z,51.50
2017-02-14T06:06:11.396Z,51.50
2017-02-14T06:07:11.542Z,51.80
2017-02-14T06:08:11.463Z,51.70
2017-02-14T06:09:12.523Z,52.20
2017-02-14T06:10:08.696Z,is
2017-02-14T06:11:13.211Z,52.70
2017-02-14T06:12:11.500Z,52.80
2017-02-14T06:13:13.586Z,53.10
2017-02-14T06:14:11.614Z,52.70
2017-02-14T06:15:13.117Z,51.50
2017-02-14T06:16:12.420Z,51.80
2017-02-14T06:17:13.372Z,52.40
2017-02-14T06:18:11.860Z,52.40
2017-02-14T06:19:11.925Z,52.70
2017-02-14T06:20:13.047Z,52.80
2017-02-14T06:21:12.449Z,52.80
2017-02-14T06:22:13.419Z,52.90
2017-02-14T06:23:12.317Z,53.00
2017-02-14T06:24:12.388Z,53.00
2017-02-14T06:25:12.105Z,53.00
2017-02-14T06:26:13.866Z,53.20
2017-02-14T06:27:10.862Z,is
2017-02-14T06:28:13.253Z,53.10
2017-02-14T06:29:12.335Z,53.20
2017-02-14T06:30:11.697Z,53.20
2017-02-14T06:31:11.731Z,53.10
2017-02-14T06:32:10.348Z,is
2017-02-14T06:33:13.683Z,53.30
2017-02-14T06:34:13.454Z,53.30
2017-02-14T06:35:12.325Z,53.30
2017-02-14T06:36:12.492Z,53.30
2017-02-14T06:37:12.264Z,53.20
2017-02-14T06:38:12.592Z,53.30
2017-02-14T06:39:10.444Z,is
2017-02-14T06:40:12.218Z,53.30
2017-02-14T06:41:12.307Z,53.40
2017-02-14T06:42:12.844Z,53.30
2017-02-14T06:43:10.895Z,is
2017-02-14T06:44:13.021Z,53.50
2017-02-14T06:45:12.345Z,53.30
2017-02-14T06:46:12.121Z,53.40
2017-02-14T06:47:12.842Z,53.40
2017-02-14T06:48:11.896Z,53.50
2017-02-14T06:49:12.621Z,53.50
2017-02-14T06:50:12.096Z,53.30
2017-02-14T06:51:12.592Z,53.50
2017-02-14T06:52:12.207Z,53.70
2017-02-14T06:53:11.683Z,53.70
2017-02-14T06:54:11.945Z,53.60
2017-02-14T06:55:13.845Z,53.70
2017-02-14T06:56:12.525Z,53.70
2017-02-14T06:57:12.836Z,53.70
2017-02-14T06:58:12.143Z,53.50
2017-02-14T06:59:13.732Z,53.60
2017-02-14T07:00:12.612Z,53.60
2017-02-14T07:01:11.709Z,53.30
2017-02-14T07:02:12.573Z,53.60
2017-02-14T07:03:11.686Z,53.60
2017-02-14T07:04:12.796Z,53.60
2017-02-14T07:05:12.531Z,53.50
2017-02-14T07:06:12.132Z,53.60
2017-02-14T07:07:12.979Z,53.60
2017-02-14T07:08:13.384Z,53.60
2017-02-14T07:09:12.027Z,53.50
2017-02-14T07:10:12.882Z,53.70
2017-02-14T07:11:12.110Z,53.60
2017-02-14T07:12:14.200Z,53.70
2017-02-14T07:13:12.377Z,53.60
2017-02-14T07:14:10.291Z,is
2017-02-14T07:15:12.283Z,53.70
2017-02-14T07:16:12.492Z,53.60
2017-02-14T07:17:12.255Z,53.70
2017-02-14T07:18:12.959Z,53.60
2017-02-14T07:19:13.614Z,53.60
2017-02-14T07:20:12.521Z,53.70
2017-02-14T07:21:10.134Z,is
2017-02-14T07:22:12.250Z,53.60
2017-02-14T07:23:13.064Z,53.70
2017-02-14T07:24:12.802Z,53.60
2017-02-14T07:25:12.490Z,53.50
2017-02-14T07:26:12.118Z,53.70
2017-02-14T07:27:12.986Z,53.50
2017-02-14T07:28:12.139Z,53.60
2017-02-14T07:29:12.299Z,53.60
2017-02-14T07:30:13.082Z,53.60
2017-02-14T07:31:12.275Z,53.40
2017-02-14T07:32:12.899Z,53.60
2017-02-14T07:33:12.687Z,53.60
2017-02-14T07:34:12.270Z,53.60
2017-02-14T07:35:12.297Z,53.40
2017-02-14T07:36:14.857Z,53.50
2017-02-14T07:37:12.499Z,53.50
2017-02-14T07:38:10.695Z,is
2017-02-14T07:39:11.822Z,53.60
2017-02-14T07:40:11.812Z,is
2017-02-14T07:41:11.505Z,53.70
2017-02-14T07:42:12.134Z,53.60
2017-02-14T07:43:12.274Z,53.70
2017-02-14T07:44:12.261Z,53.60
2017-02-14T07:45:12.403Z,53.60
2017-02-14T07:46:12.275Z,53.50
2017-02-14T07:47:13.104Z,53.60
2017-02-14T07:48:12.280Z,53.70
2017-02-14T07:49:13.149Z,53.50
2017-02-14T07:50:12.942Z,53.70
2017-02-14T07:51:12.710Z,53.70
2017-02-14T07:52:11.903Z,53.60
2017-02-14T07:53:12.296Z,53.70
2017-02-14T07:54:13.138Z,53.80
2017-02-14T07:55:12.256Z,53.60
2017-02-14T07:56:10.778Z,is
2017-02-14T07:57:10.202Z,is
2017-02-14T07:58:11.743Z,53.60
2017-02-14T07:59:11.750Z,53.60
2017-02-14T08:00:12.499Z,53.40
2017-02-14T08:01:12.615Z,53.60
2017-02-14T08:02:11.791Z,53.50
2017-02-14T08:03:13.542Z,53.60
2017-02-14T08:04:13.375Z,53.60
2017-02-14T08:05:11.345Z,53.30
2017-02-14T08:06:12.836Z,53.40
2017-02-14T08:07:11.849Z,53.40
2017-02-14T08:08:10.997Z,is
2017-02-14T08:09:12.320Z,53.50
2017-02-14T08:10:13.474Z,53.60
2017-02-14T08:11:12.527Z,53.60
2017-02-14T08:12:12.187Z,53.60
2017-02-14T08:13:13.144Z,53.70
2017-02-14T08:14:13.872Z,53.60
2017-02-14T08:15:13.605Z,53.60
2017-02-14T08:16:11.649Z,53.40
2017-02-14T08:17:12.628Z,53.60
2017-02-14T08:18:13.566Z,53.60
2017-02-14T08:19:11.592Z,53.40
2017-02-14T08:20:11.755Z,53.40
2017-02-14T08:21:12.606Z,53.50
2017-02-14T08:22:12.324Z,53.50
2017-02-14T08:23:11.309Z,53.30
2017-02-14T08:24:10.930Z,is
2017-02-14T08:25:12.267Z,53.40
2017-02-14T08:26:11.395Z,53.40
2017-02-14T08:27:11.414Z,53.50
2017-02-14T08:28:13.243Z,53.50
2017-02-14T08:29:11.446Z,53.40
2017-02-14T08:30:11.767Z,53.50
2017-02-14T08:31:10.804Z,is
2017-02-14T08:32:14.102Z,53.50
2017-02-14T08:33:13.428Z,53.50
2017-02-14T08:34:12.786Z,53.50
2017-02-14T08:35:12.631Z,53.50
2017-02-14T08:36:13.233Z,53.50
2017-02-14T08:37:10.726Z,is
2017-02-14T08:38:13.260Z,53.40
2017-02-14T08:39:12.581Z,53.50
2017-02-14T08:40:12.880Z,53.50
2017-02-14T08:41:12.468Z,53.50
2017-02-14T08:42:11.552Z,53.50
2017-02-14T08:43:11.883Z,53.50
2017-02-14T08:44:12.785Z,53.50
2017-02-14T08:45:11.949Z,53.40
2017-02-14T08:46:10.437Z,is
2017-02-14T08:47:12.075Z,53.30
2017-02-14T08:48:12.263Z,53.40
2017-02-14T08:49:12.273Z,53.40
2017-02-14T08:50:12.332Z,53.40
2017-02-14T08:51:12.330Z,53.50
2017-02-14T08:52:14.207Z,53.40
2017-02-14T08:53:12.271Z,53.30
2017-02-14T08:54:14.094Z,53.40
2017-02-14T08:55:13.404Z,53.30
2017-02-14T08:56:12.085Z,53.40
2017-02-14T08:57:12.084Z,53.30
2017-02-14T08:58:12.356Z,53.20
2017-02-14T08:59:11.318Z,53.20
2017-02-14T09:00:14.137Z,53.30
2017-02-14T09:01:12.904Z,53.40
2017-02-14T09:02:09.358Z,is
2017-02-14T09:03:12.285Z,53.10
2017-02-14T09:04:12.867Z,53.40
2017-02-14T09:05:12.113Z,53.20
2017-02-14T09:06:12.906Z,53.10
2017-02-14T09:07:12.893Z,53.10
2017-02-14T09:08:11.915Z,53.10
2017-02-14T09:09:12.812Z,53.10
2017-02-14T09:10:11.913Z,53.10
2017-02-14T09:11:12.746Z,53.20
2017-02-14T09:12:12.818Z,53.10
2017-02-14T09:13:13.723Z,53.10
2017-02-14T09:14:11.816Z,53.10
2017-02-14T09:15:13.549Z,53.10
2017-02-14T09:16:11.644Z,52.90
2017-02-14T09:17:10.340Z,is
2017-02-14T09:18:12.164Z,53.10
2017-02-14T09:19:14.064Z,53.10
2017-02-14T09:20:10.639Z,is
2017-02-14T09:21:12.578Z,53.10
2017-02-14T09:22:11.759Z,53.00
2017-02-14T09:23:11.865Z,53.00
2017-02-14T09:24:12.058Z,52.90
2017-02-14T09:25:13.699Z,53.00
2017-02-14T09:26:12.984Z,53.00
2017-02-14T09:27:13.674Z,53.60
2017-02-14T09:28:11.869Z,53.20
2017-02-14T09:29:12.647Z,53.00
2017-02-14T09:30:11.586Z,52.90
2017-02-14T09:31:11.495Z,52.90
2017-02-14T09:32:12.278Z,53.00
2017-02-14T09:33:12.382Z,52.90
2017-02-14T09:34:11.582Z,52.90
2017-02-14T09:35:13.294Z,52.80
2017-02-14T09:36:12.315Z,52.90
2017-02-14T09:37:12.501Z,52.80
2017-02-14T09:38:11.651Z,53.00
2017-02-14T09:39:12.525Z,52.20
2017-02-14T09:40:11.364Z,39.00
2017-02-14T09:41:12.763Z,34.40
2017-02-14T09:42:13.032Z,32.00
2017-02-14T09:43:13.434Z,32.00
2017-02-14T09:44:13.449Z,34.60
2017-02-14T09:45:10.934Z,is
2017-02-14T09:46:12.484Z,34.90
2017-02-14T09:47:11.634Z,36.50
2017-02-14T09:48:11.912Z,38.30
2017-02-14T09:49:12.864Z,39.00
2017-02-14T09:50:12.414Z,39.50
2017-02-14T09:51:12.125Z,39.20
2017-02-14T09:52:12.515Z,38.90
2017-02-14T09:53:11.512Z,38.90
2017-02-14T09:54:12.384Z,39.80
2017-02-14T09:55:11.792Z,39.00
2017-02-14T09:56:11.889Z,39.10
2017-02-14T09:57:14.656Z,39.00
2017-02-14T09:58:11.909Z,39.30
2017-02-14T09:59:12.086Z,39.30
2017-02-14T10:00:12.645Z,39.50
2017-02-14T10:01:12.101Z,39.30
2017-02-14T10:02:12.704Z,39.50
2017-02-14T10:03:12.477Z,40.10
2017-02-14T10:04:11.624Z,40.50
2017-02-14T10:05:12.566Z,40.60
2017-02-14T10:06:11.635Z,40.60
2017-02-14T10:07:12.672Z,40.90
2017-02-14T10:08:12.285Z,41.00
2017-02-14T10:09:12.934Z,41.00
2017-02-14T10:10:12.534Z,41.10
2017-02-14T10:11:12.435Z,41.30
2017-02-14T10:12:11.375Z,41.30
2017-02-14T10:13:11.448Z,41.50
2017-02-14T10:14:10.199Z,is
2017-02-14T10:15:11.525Z,41.60
2017-02-14T10:16:09.876Z,is
2017-02-14T10:17:12.321Z,42.10
2017-02-14T10:18:11.574Z,41.90
2017-02-14T10:19:11.665Z,41.90
2017-02-14T10:20:11.666Z,42.10
2017-02-14T10:21:12.268Z,41.90
2017-02-14T10:22:13.096Z,42.00
2017-02-14T10:23:12.566Z,42.40
2017-02-14T10:24:11.715Z,42.50
2017-02-14T10:25:13.610Z,42.70
2017-02-14T10:26:13.504Z,42.90
2017-02-14T10:27:11.572Z,43.00
2017-02-14T10:28:11.819Z,43.20
2017-02-14T10:29:12.816Z,43.50
2017-02-14T10:30:11.788Z,43.50
2017-02-14T10:31:12.895Z,43.90
2017-02-14T10:32:12.869Z,43.90
2017-02-14T10:33:12.455Z,43.80
2017-02-14T10:34:12.350Z,43.80
2017-02-14T10:35:12.083Z,43.80
2017-02-14T10:36:09.676Z,is
2017-02-14T10:37:12.251Z,43.80
2017-02-14T10:38:14.150Z,43.80
2017-02-14T10:39:12.304Z,43.90
2017-02-14T10:40:12.243Z,44.00
2017-02-14T10:41:13.105Z,44.40
2017-02-14T10:42:13.383Z,44.60
2017-02-14T10:43:11.377Z,44.50
2017-02-14T10:44:12.887Z,44.70
2017-02-14T10:45:12.725Z,44.90
2017-02-14T10:46:13.803Z,45.00
2017-02-14T10:47:11.999Z,44.40
2017-02-14T10:48:13.603Z,43.40
2017-02-14T10:49:12.936Z,44.00
2017-02-14T10:50:12.513Z,44.50
2017-02-14T10:51:13.340Z,44.80
2017-02-14T10:52:12.177Z,44.90
2017-02-14T10:53:12.391Z,44.90
2017-02-14T10:54:10.249Z,is
2017-02-14T10:55:11.782Z,45.30
2017-02-14T10:56:11.791Z,45.30
2017-02-14T10:57:11.616Z,45.40
2017-02-14T10:58:11.844Z,45.40
2017-02-14T10:59:11.961Z,45.70
2017-02-14T11:00:12.101Z,45.80
2017-02-14T11:01:12.292Z,45.80
2017-02-14T11:02:12.506Z,45.90
2017-02-14T11:03:11.611Z,45.90
2017-02-14T11:04:12.393Z,46.00
2017-02-14T11:05:09.976Z,is
2017-02-14T11:06:12.753Z,46.10
2017-02-14T11:07:11.684Z,46.20
2017-02-14T11:08:11.877Z,46.30
2017-02-14T11:09:10.735Z,is
2017-02-14T11:10:12.082Z,46.40
2017-02-14T11:11:12.244Z,46.50
2017-02-14T11:12:15.257Z,46.50
2017-02-14T11:13:12.085Z,46.60
2017-02-14T11:14:12.265Z,46.60
2017-02-14T11:15:13.055Z,46.60
2017-02-14T11:16:10.484Z,is
2017-02-14T11:17:09.655Z,is
2017-02-14T11:18:12.273Z,46.70
2017-02-14T11:19:10.160Z,is
2017-02-14T11:20:12.111Z,46.80
2017-02-14T11:21:12.286Z,47.00
2017-02-14T11:22:12.364Z,46.90
2017-02-14T11:23:12.302Z,47.00
2017-02-14T11:24:12.983Z,47.10
2017-02-14T11:25:12.127Z,47.10
2017-02-14T11:26:12.946Z,47.30
2017-02-14T11:27:11.865Z,47.20
2017-02-14T11:28:09.910Z,is
2017-02-14T11:29:12.184Z,47.30
2017-02-14T11:30:12.817Z,47.30
2017-02-14T11:31:11.867Z,47.30
2017-02-14T11:32:12.086Z,47.40
2017-02-14T11:33:12.605Z,47.50
2017-02-14T11:34:11.662Z,47.50
2017-02-14T11:35:12.325Z,47.50
2017-02-14T11:36:12.372Z,47.60
2017-02-14T11:37:12.099Z,47.60
2017-02-14T11:38:10.706Z,is
2017-02-14T11:39:12.358Z,47.60
2017-02-14T11:40:10.322Z,is
2017-02-14T11:41:11.634Z,47.70
2017-02-14T11:42:12.625Z,47.90
2017-02-14T11:43:13.706Z,47.90
2017-02-14T11:44:11.775Z,47.80
2017-02-14T11:45:13.304Z,47.90
2017-02-14T11:46:12.455Z,47.90
2017-02-14T11:47:12.860Z,47.90
2017-02-14T11:48:12.708Z,48.00
2017-02-14T11:49:11.907Z,48.00
2017-02-14T11:50:12.535Z,48.00
2017-02-14T11:51:11.647Z,48.00
2017-02-14T11:52:11.757Z,48.10
2017-02-14T11:53:10.347Z,is
2017-02-14T11:54:10.337Z,is
2017-02-14T11:55:11.968Z,48.20
2017-02-14T11:56:12.961Z,48.20
2017-02-14T11:57:12.830Z,48.30
2017-02-14T11:58:12.552Z,48.20
2017-02-14T11:59:11.639Z,48.20
2017-02-14T12:00:12.138Z,48.30
2017-02-14T12:01:12.288Z,48.20
2017-02-14T12:02:13.139Z,48.30
2017-02-14T12:03:13.880Z,48.50
2017-02-14T12:04:11.722Z,48.40
2017-02-14T12:05:13.385Z,48.50
2017-02-14T12:06:11.553Z,48.40
2017-02-14T12:07:11.709Z,48.30
2017-02-14T12:08:13.522Z,48.50
2017-02-14T12:09:11.660Z,48.60
2017-02-14T12:10:12.399Z,48.60
2017-02-14T12:11:12.083Z,48.70
2017-02-14T12:12:12.290Z,48.60
2017-02-14T12:13:12.456Z,48.50
2017-02-14T12:14:11.466Z,48.60
2017-02-14T12:15:13.264Z,48.50
2017-02-14T12:16:12.512Z,48.50
2017-02-14T12:17:12.466Z,48.80
2017-02-14T12:18:11.807Z,48.70
2017-02-14T12:19:11.915Z,48.70
2017-02-14T12:20:13.088Z,48.80
2017-02-14T12:21:13.063Z,48.80
2017-02-14T12:22:12.071Z,48.80
2017-02-14T12:23:12.257Z,48.90
2017-02-14T12:24:13.028Z,48.90
2017-02-14T12:25:12.806Z,48.80
2017-02-14T12:26:13.387Z,48.90
2017-02-14T12:27:11.518Z,48.80
2017-02-14T12:28:11.681Z,48.80
2017-02-14T12:29:12.227Z,48.90
2017-02-14T12:30:12.218Z,48.80
2017-02-14T12:31:12.842Z,49.00
2017-02-14T12:32:11.646Z,48.90
2017-02-14T12:33:12.189Z,48.90
2017-02-14T12:34:12.297Z,48.90
2017-02-14T12:35:11.125Z,is
2017-02-14T12:36:12.893Z,49.00
2017-02-14T12:37:12.574Z,48.80
2017-02-14T12:38:13.017Z,48.80
2017-02-14T12:39:12.017Z,48.90
2017-02-14T12:40:15.699Z,48.90
2017-02-14T12:41:11.646Z,48.90
2017-02-14T12:42:13.140Z,49.10
2017-02-14T12:43:10.275Z,is
2017-02-14T12:44:11.690Z,49.00
2017-02-14T12:45:14.502Z,49.00
2017-02-14T12:46:11.576Z,49.00
2017-02-14T12:47:12.282Z,49.20
2017-02-14T12:48:12.928Z,49.10
2017-02-14T12:49:12.739Z,49.10
2017-02-14T12:50:10.278Z,is
2017-02-14T12:51:11.796Z,49.10
2017-02-14T12:52:13.580Z,49.10
2017-02-14T12:53:13.209Z,49.20
2017-02-14T12:54:12.317Z,49.20
2017-02-14T12:55:13.110Z,49.10
2017-02-14T12:56:14.198Z,49.20
2017-02-14T12:57:13.951Z,49.10
2017-02-14T12:58:12.262Z,49.20
2017-02-14T12:59:13.032Z,49.30